sensor_id;sensor_type;location;lat;lon;timestamp;P1;durP1;ratioP1;P2;durP2;ratioP2
52380;SDS011;38310;52.796;6.942;2023-12-04T00:00:36;31.17;;;15.18;;
52380;SDS011;38310;52.796;6.942;2023-12-04T00:03:02;28.73;;;15.95;;
52380;SDS011;38310;52.796;6.942;2023-12-04T00:05:28;30.33;;;14.82;;
52380;SDS011;38310;52.796;6.942;2023-12-04T00:07:54;27.88;;;14.73;;
52380;SDS011;38310;52.796;6.942;2023-12-04T00:10:20;40.75;;;29.10;;
52380;SDS011;38310;52.796;6.942;2023-12-04T00:12:46;35.60;;;26.52;;
52380;SDS011;38310;52.796;6.942;2023-12-04T00:15:11;39.22;;;28.33;;
52380;SDS011;38310;52.796;6.942;2023-12-04T00:17:37;35.65;;;29.38;;
52380;SDS011;38310;52.796;6.942;2023-12-04T00:20:08;30.23;;;14.20;;
52380;SDS011;38310;52.796;6.942;2023-12-04T00:22:35;28.33;;;13.30;;
52380;SDS011;38310;52.796;6.942;2023-12-04T00:25:02;31.20;;;15.15;;
52380;SDS011;38310;52.796;6.942;2023-12-04T00:27:28;24.17;;;13.25;;
52380;SDS011;38310;52.796;6.942;2023-12-04T00:29:54;26.17;;;14.80;;
52380;SDS011;38310;52.796;6.942;2023-12-04T00:32:20;31.33;;;14.98;;
52380;SDS011;38310;52.796;6.942;2023-12-04T00:34:46;36.55;;;16.52;;
52380;SDS011;38310;52.796;6.942;2023-12-04T00:37:12;28.10;;;15.48;;
52380;SDS011;38310;52.796;6.942;2023-12-04T00:39:38;39.03;;;27.38;;
52380;SDS011;38310;52.796;6.942;2023-12-04T00:42:03;27.20;;;15.88;;
52380;SDS011;38310;52.796;6.942;2023-12-04T00:44:30;30.92;;;14.05;;
52380;SDS011;38310;52.796;6.942;2023-12-04T00:46:55;28.33;;;14.95;;
52380;SDS011;38310;52.796;6.942;2023-12-04T00:49:21;28.50;;;14.23;;
52380;SDS011;38310;52.796;6.942;2023-12-04T00:51:47;28.67;;;14.07;;
52380;SDS011;38310;52.796;6.942;2023-12-04T00:54:12;32.38;;;14.85;;
52380;SDS011;38310;52.796;6.942;2023-12-04T00:56:38;29.13;;;15.25;;
52380;SDS011;38310;52.796;6.942;2023-12-04T00:59:05;40.50;;;28.65;;
52380;SDS011;38310;52.796;6.942;2023-12-04T01:01:32;31.48;;;14.52;;
52380;SDS011;38310;52.796;6.942;2023-12-04T01:03:58;27.58;;;13.57;;
52380;SDS011;38310;52.796;6.942;2023-12-04T01:06:25;29.08;;;14.43;;
52380;SDS011;38310;52.796;6.942;2023-12-04T01:08:52;33.45;;;15.32;;
52380;SDS011;38310;52.796;6.942;2023-12-04T01:11:19;31.10;;;15.55;;
52380;SDS011;38310;52.796;6.942;2023-12-04T01:13:44;40.95;;;29.45;;
52380;SDS011;38310;52.796;6.942;2023-12-04T01:16:10;29.95;;;15.38;;
52380;SDS011;38310;52.796;6.942;2023-12-04T01:18:37;26.13;;;13.25;;
52380;SDS011;38310;52.796;6.942;2023-12-04T01:21:02;29.85;;;14.10;;
52380;SDS011;38310;52.796;6.942;2023-12-04T01:23:28;30.75;;;14.73;;
52380;SDS011;38310;52.796;6.942;2023-12-04T01:25:54;29.10;;;15.60;;
52380;SDS011;38310;52.796;6.942;2023-12-04T01:28:20;29.42;;;14.50;;
52380;SDS011;38310;52.796;6.942;2023-12-04T01:30:45;29.63;;;14.65;;
52380;SDS011;38310;52.796;6.942;2023-12-04T01:33:11;27.65;;;15.85;;
52380;SDS011;38310;52.796;6.942;2023-12-04T01:35:37;27.83;;;14.68;;
52380;SDS011;38310;52.796;6.942;2023-12-04T01:38:02;35.88;;;26.13;;
52380;SDS011;38310;52.796;6.942;2023-12-04T01:40:28;28.85;;;13.48;;
52380;SDS011;38310;52.796;6.942;2023-12-04T01:42:54;28.85;;;14.23;;
52380;SDS011;38310;52.796;6.942;2023-12-04T01:45:20;26.77;;;14.40;;
52380;SDS011;38310;52.796;6.942;2023-12-04T01:47:45;26.67;;;14.50;;
52380;SDS011;38310;52.796;6.942;2023-12-04T01:50:12;30.67;;;15.63;;
52380;SDS011;38310;52.796;6.942;2023-12-04T01:52:39;29.40;;;15.02;;
52380;SDS011;38310;52.796;6.942;2023-12-04T01:55:06;40.28;;;28.55;;
52380;SDS011;38310;52.796;6.942;2023-12-04T01:57:34;26.02;;;13.75;;
52380;SDS011;38310;52.796;6.942;2023-12-04T02:00:00;35.65;;;26.23;;
52380;SDS011;38310;52.796;6.942;2023-12-04T02:02:29;34.67;;;26.10;;
52380;SDS011;38310;52.796;6.942;2023-12-04T02:04:55;26.67;;;13.60;;
52380;SDS011;38310;52.796;6.942;2023-12-04T02:07:22;26.85;;;13.52;;
52380;SDS011;38310;52.796;6.942;2023-12-04T02:09:48;22.40;;;12.85;;
52380;SDS011;38310;52.796;6.942;2023-12-04T02:12:14;26.27;;;14.45;;
52380;SDS011;38310;52.796;6.942;2023-12-04T02:14:40;25.65;;;12.65;;
52380;SDS011;38310;52.796;6.942;2023-12-04T02:17:05;27.25;;;13.05;;
52380;SDS011;38310;52.796;6.942;2023-12-04T02:19:33;34.42;;;25.23;;
52380;SDS011;38310;52.796;6.942;2023-12-04T02:21:59;34.30;;;25.08;;
52380;SDS011;38310;52.796;6.942;2023-12-04T02:24:24;33.55;;;24.73;;
52380;SDS011;38310;52.796;6.942;2023-12-04T02:27:04;35.50;;;25.63;;
52380;SDS011;38310;52.796;6.942;2023-12-04T02:29:55;35.75;;;24.88;;
52380;SDS011;38310;52.796;6.942;2023-12-04T02:32:24;26.55;;;12.45;;
52380;SDS011;38310;52.796;6.942;2023-12-04T02:34:56;28.33;;;14.07;;
52380;SDS011;38310;52.796;6.942;2023-12-04T02:37:24;23.42;;;12.10;;
52380;SDS011;38310;52.796;6.942;2023-12-04T02:39:51;26.80;;;12.32;;
52380;SDS011;38310;52.796;6.942;2023-12-04T02:42:21;25.33;;;12.30;;
52380;SDS011;38310;52.796;6.942;2023-12-04T02:44:49;26.35;;;13.57;;
52380;SDS011;38310;52.796;6.942;2023-12-04T02:47:15;26.95;;;13.65;;
52380;SDS011;38310;52.796;6.942;2023-12-04T02:49:42;27.40;;;13.60;;
52380;SDS011;38310;52.796;6.942;2023-12-04T02:52:08;23.00;;;12.27;;
52380;SDS011;38310;52.796;6.942;2023-12-04T02:54:33;24.40;;;13.77;;
52380;SDS011;38310;52.796;6.942;2023-12-04T02:56:59;27.73;;;14.32;;
52380;SDS011;38310;52.796;6.942;2023-12-04T02:59:25;23.50;;;11.85;;
52380;SDS011;38310;52.796;6.942;2023-12-04T03:01:51;23.95;;;12.15;;
52380;SDS011;38310;52.796;6.942;2023-12-04T03:04:16;25.90;;;13.93;;
52380;SDS011;38310;52.796;6.942;2023-12-04T03:06:44;24.65;;;13.70;;
52380;SDS011;38310;52.796;6.942;2023-12-04T03:09:09;23.05;;;12.13;;
52380;SDS011;38310;52.796;6.942;2023-12-04T03:11:35;24.50;;;13.60;;
52380;SDS011;38310;52.796;6.942;2023-12-04T03:14:04;24.60;;;13.38;;
52380;SDS011;38310;52.796;6.942;2023-12-04T03:16:29;26.65;;;13.45;;
52380;SDS011;38310;52.796;6.942;2023-12-04T03:18:55;25.58;;;12.32;;
52380;SDS011;38310;52.796;6.942;2023-12-04T03:21:21;27.30;;;12.77;;
52380;SDS011;38310;52.796;6.942;2023-12-04T03:23:46;21.35;;;12.23;;
52380;SDS011;38310;52.796;6.942;2023-12-04T03:26:12;25.83;;;14.10;;
52380;SDS011;38310;52.796;6.942;2023-12-04T03:28:38;25.60;;;13.57;;
52380;SDS011;38310;52.796;6.942;2023-12-04T03:31:05;35.92;;;26.02;;
52380;SDS011;38310;52.796;6.942;2023-12-04T03:33:31;24.77;;;11.93;;
52380;SDS011;38310;52.796;6.942;2023-12-04T03:35:58;34.63;;;24.05;;
52380;SDS011;38310;52.796;6.942;2023-12-04T03:38:25;28.23;;;14.30;;
52380;SDS011;38310;52.796;6.942;2023-12-04T03:40:50;26.23;;;15.07;;
52380;SDS011;38310;52.796;6.942;2023-12-04T03:43:16;26.15;;;13.32;;
52380;SDS011;38310;52.796;6.942;2023-12-04T03:45:42;26.85;;;13.98;;
52380;SDS011;38310;52.796;6.942;2023-12-04T03:48:08;33.40;;;24.45;;
52380;SDS011;38310;52.796;6.942;2023-12-04T03:50:33;27.13;;;13.38;;
52380;SDS011;38310;52.796;6.942;2023-12-04T03:52:59;22.02;;;13.07;;
52380;SDS011;38310;52.796;6.942;2023-12-04T03:55:25;30.27;;;14.23;;
52380;SDS011;38310;52.796;6.942;2023-12-04T03:57:52;24.08;;;13.30;;
52380;SDS011;38310;52.796;6.942;2023-12-04T04:00:18;28.38;;;14.57;;
52380;SDS011;38310;52.796;6.942;2023-12-04T04:02:44;25.83;;;12.85;;
52380;SDS011;38310;52.796;6.942;2023-12-04T04:05:10;27.27;;;14.43;;
52380;SDS011;38310;52.796;6.942;2023-12-04T04:07:35;27.30;;;13.15;;
52380;SDS011;38310;52.796;6.942;2023-12-04T04:10:01;22.67;;;11.95;;
52380;SDS011;38310;52.796;6.942;2023-12-04T04:12:29;26.55;;;13.23;;
52380;SDS011;38310;52.796;6.942;2023-12-04T04:14:55;23.27;;;12.32;;
52380;SDS011;38310;52.796;6.942;2023-12-04T04:17:21;22.90;;;12.40;;
52380;SDS011;38310;52.796;6.942;2023-12-04T04:19:50;22.60;;;11.75;;
52380;SDS011;38310;52.796;6.942;2023-12-04T04:22:16;32.63;;;22.92;;
52380;SDS011;38310;52.796;6.942;2023-12-04T04:24:42;22.42;;;13.23;;
52380;SDS011;38310;52.796;6.942;2023-12-04T04:27:07;29.55;;;22.13;;
52380;SDS011;38310;52.796;6.942;2023-12-04T04:29:33;24.80;;;13.13;;
52380;SDS011;38310;52.796;6.942;2023-12-04T04:31:59;28.85;;;23.10;;
52380;SDS011;38310;52.796;6.942;2023-12-04T04:34:25;27.40;;;13.75;;
52380;SDS011;38310;52.796;6.942;2023-12-04T04:36:50;29.65;;;22.05;;
52380;SDS011;38310;52.796;6.942;2023-12-04T04:39:16;22.17;;;11.82;;
52380;SDS011;38310;52.796;6.942;2023-12-04T04:41:42;24.40;;;12.10;;
52380;SDS011;38310;52.796;6.942;2023-12-04T04:44:09;30.60;;;22.48;;
52380;SDS011;38310;52.796;6.942;2023-12-04T04:46:34;30.73;;;13.35;;
52380;SDS011;38310;52.796;6.942;2023-12-04T04:49:00;25.92;;;11.68;;
52380;SDS011;38310;52.796;6.942;2023-12-04T04:51:27;29.65;;;22.83;;
52380;SDS011;38310;52.796;6.942;2023-12-04T04:53:53;24.88;;;13.07;;
52380;SDS011;38310;52.796;6.942;2023-12-04T04:56:19;21.77;;;11.25;;
52380;SDS011;38310;52.796;6.942;2023-12-04T04:58:45;28.85;;;13.35;;
52380;SDS011;38310;52.796;6.942;2023-12-04T05:01:11;27.42;;;21.33;;
52380;SDS011;38310;52.796;6.942;2023-12-04T05:03:36;28.73;;;20.98;;
52380;SDS011;38310;52.796;6.942;2023-12-04T05:06:02;24.00;;;11.80;;
52380;SDS011;38310;52.796;6.942;2023-12-04T05:08:28;25.40;;;12.13;;
52380;SDS011;38310;52.796;6.942;2023-12-04T05:10:54;27.58;;;12.63;;
52380;SDS011;38310;52.796;6.942;2023-12-04T05:13:20;29.02;;;22.08;;
52380;SDS011;38310;52.796;6.942;2023-12-04T05:15:45;24.02;;;12.02;;
52380;SDS011;38310;52.796;6.942;2023-12-04T05:18:11;21.77;;;11.07;;
52380;SDS011;38310;52.796;6.942;2023-12-04T05:20:37;32.00;;;22.40;;
52380;SDS011;38310;52.796;6.942;2023-12-04T05:23:02;24.42;;;12.93;;
52380;SDS011;38310;52.796;6.942;2023-12-04T05:25:28;21.52;;;12.85;;
52380;SDS011;38310;52.796;6.942;2023-12-04T05:27:54;29.10;;;20.90;;
52380;SDS011;38310;52.796;6.942;2023-12-04T05:30:19;30.88;;;23.17;;
52380;SDS011;38310;52.796;6.942;2023-12-04T05:32:45;29.02;;;21.92;;
52380;SDS011;38310;52.796;6.942;2023-12-04T05:35:11;30.08;;;21.58;;
52380;SDS011;38310;52.796;6.942;2023-12-04T05:37:36;26.65;;;20.80;;
52380;SDS011;38310;52.796;6.942;2023-12-04T05:40:02;26.48;;;12.93;;
52380;SDS011;38310;52.796;6.942;2023-12-04T05:42:30;25.15;;;12.82;;
52380;SDS011;38310;52.796;6.942;2023-12-04T05:44:55;22.98;;;12.15;;
52380;SDS011;38310;52.796;6.942;2023-12-04T05:47:22;30.58;;;21.52;;
52380;SDS011;38310;52.796;6.942;2023-12-04T05:49:48;24.52;;;12.52;;
52380;SDS011;38310;52.796;6.942;2023-12-04T05:52:13;23.42;;;13.52;;
52380;SDS011;38310;52.796;6.942;2023-12-04T05:54:39;23.63;;;13.05;;
52380;SDS011;38310;52.796;6.942;2023-12-04T05:57:05;25.20;;;14.00;;
52380;SDS011;38310;52.796;6.942;2023-12-04T05:59:30;24.92;;;12.90;;
52380;SDS011;38310;52.796;6.942;2023-12-04T06:01:56;27.00;;;20.40;;
52380;SDS011;38310;52.796;6.942;2023-12-04T06:04:22;28.38;;;20.30;;
52380;SDS011;38310;52.796;6.942;2023-12-04T06:06:48;27.35;;;20.92;;
52380;SDS011;38310;52.796;6.942;2023-12-04T06:09:13;27.25;;;20.05;;
52380;SDS011;38310;52.796;6.942;2023-12-04T06:11:41;20.30;;;10.85;;
52380;SDS011;38310;52.796;6.942;2023-12-04T06:14:07;23.60;;;11.90;;
52380;SDS011;38310;52.796;6.942;2023-12-04T06:16:33;20.75;;;10.88;;
52380;SDS011;38310;52.796;6.942;2023-12-04T06:18:59;29.42;;;20.02;;
52380;SDS011;38310;52.796;6.942;2023-12-04T06:21:24;26.02;;;19.88;;
52380;SDS011;38310;52.796;6.942;2023-12-04T06:23:50;27.70;;;19.48;;
52380;SDS011;38310;52.796;6.942;2023-12-04T06:26:16;28.50;;;19.90;;
52380;SDS011;38310;52.796;6.942;2023-12-04T06:28:43;26.40;;;19.77;;
52380;SDS011;38310;52.796;6.942;2023-12-04T06:31:10;21.67;;;11.55;;
52380;SDS011;38310;52.796;6.942;2023-12-04T06:33:36;20.40;;;11.35;;
52380;SDS011;38310;52.796;6.942;2023-12-04T06:36:02;20.92;;;11.25;;
52380;SDS011;38310;52.796;6.942;2023-12-04T06:38:30;26.45;;;18.52;;
52380;SDS011;38310;52.796;6.942;2023-12-04T06:40:58;22.83;;;11.02;;
52380;SDS011;38310;52.796;6.942;2023-12-04T06:43:24;21.58;;;11.93;;
52380;SDS011;38310;52.796;6.942;2023-12-04T06:45:50;22.92;;;11.18;;
52380;SDS011;38310;52.796;6.942;2023-12-04T06:48:16;24.70;;;11.90;;
52380;SDS011;38310;52.796;6.942;2023-12-04T06:50:42;24.00;;;11.05;;
52380;SDS011;38310;52.796;6.942;2023-12-04T06:53:08;20.20;;;10.93;;
52380;SDS011;38310;52.796;6.942;2023-12-04T06:55:34;20.38;;;11.10;;
52380;SDS011;38310;52.796;6.942;2023-12-04T06:58:00;21.58;;;12.65;;
52380;SDS011;38310;52.796;6.942;2023-12-04T07:00:26;21.83;;;11.13;;
52380;SDS011;38310;52.796;6.942;2023-12-04T07:02:51;24.52;;;18.75;;
52380;SDS011;38310;52.796;6.942;2023-12-04T07:05:18;23.88;;;11.70;;
52380;SDS011;38310;52.796;6.942;2023-12-04T07:07:45;21.05;;;11.05;;
52380;SDS011;38310;52.796;6.942;2023-12-04T07:10:10;20.95;;;11.40;;
52380;SDS011;38310;52.796;6.942;2023-12-04T07:12:43;20.90;;;10.82;;
52380;SDS011;38310;52.796;6.942;2023-12-04T07:15:09;18.30;;;10.52;;
52380;SDS011;38310;52.796;6.942;2023-12-04T07:17:36;22.48;;;17.13;;
52380;SDS011;38310;52.796;6.942;2023-12-04T07:20:03;22.92;;;17.10;;
52380;SDS011;38310;52.796;6.942;2023-12-04T07:22:32;21.50;;;10.77;;
52380;SDS011;38310;52.796;6.942;2023-12-04T07:24:58;17.65;;;10.60;;
52380;SDS011;38310;52.796;6.942;2023-12-04T07:27:24;21.88;;;11.13;;
52380;SDS011;38310;52.796;6.942;2023-12-04T07:29:50;22.40;;;16.10;;
52380;SDS011;38310;52.796;6.942;2023-12-04T07:32:16;21.52;;;10.18;;
52380;SDS011;38310;52.796;6.942;2023-12-04T07:34:43;19.25;;;10.23;;
52380;SDS011;38310;52.796;6.942;2023-12-04T07:37:09;16.42;;;8.93;;
52380;SDS011;38310;52.796;6.942;2023-12-04T07:39:35;22.30;;;16.00;;
52380;SDS011;38310;52.796;6.942;2023-12-04T07:42:00;20.52;;;15.98;;
52380;SDS011;38310;52.796;6.942;2023-12-04T07:44:26;19.17;;;9.10;;
52380;SDS011;38310;52.796;6.942;2023-12-04T07:46:52;18.58;;;9.27;;
52380;SDS011;38310;52.796;6.942;2023-12-04T07:49:18;20.40;;;8.75;;
52380;SDS011;38310;52.796;6.942;2023-12-04T07:51:44;21.52;;;15.02;;
52380;SDS011;38310;52.796;6.942;2023-12-04T07:54:09;19.15;;;9.55;;
52380;SDS011;38310;52.796;6.942;2023-12-04T07:56:35;17.63;;;9.10;;
52380;SDS011;38310;52.796;6.942;2023-12-04T07:59:01;22.08;;;10.38;;
52380;SDS011;38310;52.796;6.942;2023-12-04T08:01:27;17.25;;;9.43;;
52380;SDS011;38310;52.796;6.942;2023-12-04T08:03:52;17.05;;;9.45;;
52380;SDS011;38310;52.796;6.942;2023-12-04T08:06:18;15.10;;;10.13;;
52380;SDS011;38310;52.796;6.942;2023-12-04T08:08:44;15.25;;;8.18;;
52380;SDS011;38310;52.796;6.942;2023-12-04T08:11:10;18.17;;;9.40;;
52380;SDS011;38310;52.796;6.942;2023-12-04T08:13:38;19.40;;;14.73;;
52380;SDS011;38310;52.796;6.942;2023-12-04T08:16:04;18.38;;;9.68;;
52380;SDS011;38310;52.796;6.942;2023-12-04T08:18:30;17.17;;;8.55;;
52380;SDS011;38310;52.796;6.942;2023-12-04T08:20:59;16.45;;;8.40;;
52380;SDS011;38310;52.796;6.942;2023-12-04T08:23:26;19.00;;;13.80;;
52380;SDS011;38310;52.796;6.942;2023-12-04T08:25:51;16.55;;;8.70;;
52380;SDS011;38310;52.796;6.942;2023-12-04T08:28:17;18.05;;;13.57;;
52380;SDS011;38310;52.796;6.942;2023-12-04T08:30:43;19.65;;;14.50;;
52380;SDS011;38310;52.796;6.942;2023-12-04T08:33:08;17.65;;;13.90;;
52380;SDS011;38310;52.796;6.942;2023-12-04T08:35:34;17.35;;;8.27;;
52380;SDS011;38310;52.796;6.942;2023-12-04T08:38:00;17.90;;;13.77;;
52380;SDS011;38310;52.796;6.942;2023-12-04T08:40:26;12.90;;;7.63;;
52380;SDS011;38310;52.796;6.942;2023-12-04T08:42:51;16.20;;;8.32;;
52380;SDS011;38310;52.796;6.942;2023-12-04T08:45:17;16.95;;;7.63;;
52380;SDS011;38310;52.796;6.942;2023-12-04T08:47:44;16.65;;;12.70;;
52380;SDS011;38310;52.796;6.942;2023-12-04T08:50:09;16.20;;;11.73;;
52380;SDS011;38310;52.796;6.942;2023-12-04T08:52:35;16.63;;;12.52;;
52380;SDS011;38310;52.796;6.942;2023-12-04T08:55:01;15.75;;;11.63;;
52380;SDS011;38310;52.796;6.942;2023-12-04T08:57:27;14.60;;;7.30;;
52380;SDS011;38310;52.796;6.942;2023-12-04T08:59:53;18.17;;;13.02;;
52380;SDS011;38310;52.796;6.942;2023-12-04T09:02:18;15.70;;;11.77;;
52380;SDS011;38310;52.796;6.942;2023-12-04T09:04:44;13.98;;;8.13;;
52380;SDS011;38310;52.796;6.942;2023-12-04T09:07:10;11.50;;;6.95;;
52380;SDS011;38310;52.796;6.942;2023-12-04T09:09:35;13.82;;;8.52;;
52380;SDS011;38310;52.796;6.942;2023-12-04T09:12:01;13.63;;;8.52;;
52380;SDS011;38310;52.796;6.942;2023-12-04T09:14:27;13.23;;;7.18;;
52380;SDS011;38310;52.796;6.942;2023-12-04T09:16:53;14.50;;;8.18;;
52380;SDS011;38310;52.796;6.942;2023-12-04T09:19:19;12.52;;;7.60;;
52380;SDS011;38310;52.796;6.942;2023-12-04T09:21:44;15.23;;;11.48;;
52380;SDS011;38310;52.796;6.942;2023-12-04T09:24:10;14.00;;;11.05;;
52380;SDS011;38310;52.796;6.942;2023-12-04T09:26:36;15.38;;;11.80;;
52380;SDS011;38310;52.796;6.942;2023-12-04T09:29:02;13.00;;;10.45;;
52380;SDS011;38310;52.796;6.942;2023-12-04T09:31:27;13.25;;;10.48;;
52380;SDS011;38310;52.796;6.942;2023-12-04T09:33:53;12.20;;;7.05;;
52380;SDS011;38310;52.796;6.942;2023-12-04T09:36:19;14.52;;;10.30;;
52380;SDS011;38310;52.796;6.942;2023-12-04T09:38:44;13.63;;;10.85;;
52380;SDS011;38310;52.796;6.942;2023-12-04T09:41:10;14.32;;;10.88;;
52380;SDS011;38310;52.796;6.942;2023-12-04T09:43:37;12.23;;;6.75;;
52380;SDS011;38310;52.796;6.942;2023-12-04T09:46:04;12.32;;;9.82;;
52380;SDS011;38310;52.796;6.942;2023-12-04T09:48:30;12.10;;;6.78;;
52380;SDS011;38310;52.796;6.942;2023-12-04T09:50:57;14.80;;;10.63;;
52380;SDS011;38310;52.796;6.942;2023-12-04T09:53:23;10.75;;;9.05;;
52380;SDS011;38310;52.796;6.942;2023-12-04T09:55:51;11.38;;;9.05;;
52380;SDS011;38310;52.796;6.942;2023-12-04T09:58:20;13.45;;;9.80;;
52380;SDS011;38310;52.796;6.942;2023-12-04T10:00:47;11.82;;;9.32;;
52380;SDS011;38310;52.796;6.942;2023-12-04T10:03:13;15.50;;;6.78;;
52380;SDS011;38310;52.796;6.942;2023-12-04T10:05:43;12.60;;;9.50;;
52380;SDS011;38310;52.796;6.942;2023-12-04T10:08:10;12.43;;;9.75;;
52380;SDS011;38310;52.796;6.942;2023-12-04T10:10:36;13.75;;;10.80;;
52380;SDS011;38310;52.796;6.942;2023-12-04T10:13:02;14.05;;;10.30;;
52380;SDS011;38310;52.796;6.942;2023-12-04T10:15:28;11.27;;;6.45;;
52380;SDS011;38310;52.796;6.942;2023-12-04T10:17:54;13.68;;;9.95;;
52380;SDS011;38310;52.796;6.942;2023-12-04T10:20:20;13.98;;;9.52;;
52380;SDS011;38310;52.796;6.942;2023-12-04T10:23:02;12.27;;;9.32;;
52380;SDS011;38310;52.796;6.942;2023-12-04T10:25:28;12.52;;;9.10;;
52380;SDS011;38310;52.796;6.942;2023-12-04T10:28:08;11.13;;;8.98;;
52380;SDS011;38310;52.796;6.942;2023-12-04T10:30:35;14.35;;;9.48;;
52380;SDS011;38310;52.796;6.942;2023-12-04T10:33:02;10.77;;;9.00;;
52380;SDS011;38310;52.796;6.942;2023-12-04T10:35:30;11.18;;;8.82;;
52380;SDS011;38310;52.796;6.942;2023-12-04T10:38:06;11.60;;;9.07;;
52380;SDS011;38310;52.796;6.942;2023-12-04T10:40:34;12.73;;;9.18;;
52380;SDS011;38310;52.796;6.942;2023-12-04T10:45:43;13.55;;;9.63;;
52380;SDS011;38310;52.796;6.942;2023-12-04T10:48:11;12.50;;;8.68;;
52380;SDS011;38310;52.796;6.942;2023-12-04T10:50:38;10.23;;;8.65;;
52380;SDS011;38310;52.796;6.942;2023-12-04T10:53:08;11.00;;;8.95;;
52380;SDS011;38310;52.796;6.942;2023-12-04T10:55:36;13.70;;;9.77;;
52380;SDS011;38310;52.796;6.942;2023-12-04T10:58:04;11.63;;;9.10;;
52380;SDS011;38310;52.796;6.942;2023-12-04T11:00:35;10.27;;;6.10;;
52380;SDS011;38310;52.796;6.942;2023-12-04T11:03:09;11.07;;;8.55;;
52380;SDS011;38310;52.796;6.942;2023-12-04T11:05:38;10.27;;;8.60;;
52380;SDS011;38310;52.796;6.942;2023-12-04T11:08:06;10.05;;;7.97;;
52380;SDS011;38310;52.796;6.942;2023-12-04T11:10:34;11.52;;;9.00;;
52380;SDS011;38310;52.796;6.942;2023-12-04T11:13:12;13.40;;;7.88;;
52380;SDS011;38310;52.796;6.942;2023-12-04T11:15:47;10.27;;;9.05;;
52380;SDS011;38310;52.796;6.942;2023-12-04T11:18:16;10.90;;;5.70;;
52380;SDS011;38310;52.796;6.942;2023-12-04T11:20:50;13.35;;;9.55;;
52380;SDS011;38310;52.796;6.942;2023-12-04T11:23:19;12.57;;;9.35;;
52380;SDS011;38310;52.796;6.942;2023-12-04T11:25:45;11.20;;;8.85;;
52380;SDS011;38310;52.796;6.942;2023-12-04T11:28:12;14.52;;;10.15;;
52380;SDS011;38310;52.796;6.942;2023-12-04T11:30:39;10.63;;;6.13;;
52380;SDS011;38310;52.796;6.942;2023-12-04T11:33:05;11.98;;;9.60;;
52380;SDS011;38310;52.796;6.942;2023-12-04T11:35:32;17.70;;;10.65;;
52380;SDS011;38310;52.796;6.942;2023-12-04T11:37:59;13.73;;;10.68;;
52380;SDS011;38310;52.796;6.942;2023-12-04T11:40:24;12.35;;;10.00;;
52380;SDS011;38310;52.796;6.942;2023-12-04T11:42:52;12.50;;;9.25;;
52380;SDS011;38310;52.796;6.942;2023-12-04T11:45:18;12.95;;;9.48;;
52380;SDS011;38310;52.796;6.942;2023-12-04T11:47:51;14.02;;;10.23;;
52380;SDS011;38310;52.796;6.942;2023-12-04T11:50:21;12.52;;;9.93;;
52380;SDS011;38310;52.796;6.942;2023-12-04T11:52:49;11.77;;;9.48;;
52380;SDS011;38310;52.796;6.942;2023-12-04T11:55:16;12.85;;;9.65;;
52380;SDS011;38310;52.796;6.942;2023-12-04T11:57:43;12.55;;;7.35;;
52380;SDS011;38310;52.796;6.942;2023-12-04T12:05:20;13.63;;;10.52;;
52380;SDS011;38310;52.796;6.942;2023-12-04T12:07:46;14.18;;;10.02;;
52380;SDS011;38310;52.796;6.942;2023-12-04T12:10:13;14.25;;;10.80;;
52380;SDS011;38310;52.796;6.942;2023-12-04T12:12:39;13.52;;;9.70;;
52380;SDS011;38310;52.796;6.942;2023-12-04T12:15:11;12.25;;;6.60;;
52380;SDS011;38310;52.796;6.942;2023-12-04T12:17:38;15.95;;;10.77;;
52380;SDS011;38310;52.796;6.942;2023-12-04T12:20:05;13.55;;;7.90;;
52380;SDS011;38310;52.796;6.942;2023-12-04T12:22:34;14.57;;;10.30;;
52380;SDS011;38310;52.796;6.942;2023-12-04T12:25:06;13.73;;;10.02;;
52380;SDS011;38310;52.796;6.942;2023-12-04T12:27:33;14.05;;;10.95;;
52380;SDS011;38310;52.796;6.942;2023-12-04T12:29:59;14.57;;;10.65;;
52380;SDS011;38310;52.796;6.942;2023-12-04T12:32:26;14.43;;;11.40;;
52380;SDS011;38310;52.796;6.942;2023-12-04T12:34:52;13.07;;;9.77;;
52380;SDS011;38310;52.796;6.942;2023-12-04T12:37:19;12.80;;;10.05;;
52380;SDS011;38310;52.796;6.942;2023-12-04T12:39:46;14.40;;;10.13;;
52380;SDS011;38310;52.796;6.942;2023-12-04T12:42:12;11.30;;;9.27;;
52380;SDS011;38310;52.796;6.942;2023-12-04T12:44:53;12.32;;;9.55;;
52380;SDS011;38310;52.796;6.942;2023-12-04T12:47:20;12.48;;;9.93;;
52380;SDS011;38310;52.796;6.942;2023-12-04T12:49:46;14.20;;;10.50;;
52380;SDS011;38310;52.796;6.942;2023-12-04T12:52:12;12.93;;;10.32;;
52380;SDS011;38310;52.796;6.942;2023-12-04T12:54:38;13.98;;;10.50;;
52380;SDS011;38310;52.796;6.942;2023-12-04T12:57:05;13.90;;;10.52;;
52380;SDS011;38310;52.796;6.942;2023-12-04T12:59:32;13.63;;;11.25;;
52380;SDS011;38310;52.796;6.942;2023-12-04T13:01:58;13.05;;;10.57;;
52380;SDS011;38310;52.796;6.942;2023-12-04T13:04:35;13.48;;;10.32;;
52380;SDS011;38310;52.796;6.942;2023-12-04T13:07:07;14.05;;;10.60;;
52380;SDS011;38310;52.796;6.942;2023-12-04T13:09:34;13.38;;;10.02;;
52380;SDS011;38310;52.796;6.942;2023-12-04T13:12:03;12.02;;;10.10;;
52380;SDS011;38310;52.796;6.942;2023-12-04T13:14:29;13.25;;;10.32;;
52380;SDS011;38310;52.796;6.942;2023-12-04T13:16:55;13.68;;;10.10;;
52380;SDS011;38310;52.796;6.942;2023-12-04T13:19:24;13.50;;;10.63;;
52380;SDS011;38310;52.796;6.942;2023-12-04T13:21:50;13.75;;;10.57;;
52380;SDS011;38310;52.796;6.942;2023-12-04T13:24:16;15.00;;;10.55;;
52380;SDS011;38310;52.796;6.942;2023-12-04T13:26:43;14.77;;;10.82;;
52380;SDS011;38310;52.796;6.942;2023-12-04T13:29:09;12.75;;;10.70;;
52380;SDS011;38310;52.796;6.942;2023-12-04T13:31:35;13.52;;;10.43;;
52380;SDS011;38310;52.796;6.942;2023-12-04T13:34:01;12.50;;;10.50;;
52380;SDS011;38310;52.796;6.942;2023-12-04T13:36:28;14.15;;;10.70;;
52380;SDS011;38310;52.796;6.942;2023-12-04T13:38:54;14.02;;;11.23;;
52380;SDS011;38310;52.796;6.942;2023-12-04T13:41:19;13.48;;;10.73;;
52380;SDS011;38310;52.796;6.942;2023-12-04T13:46:29;14.35;;;10.77;;
52380;SDS011;38310;52.796;6.942;2023-12-04T13:48:56;13.27;;;10.50;;
52380;SDS011;38310;52.796;6.942;2023-12-04T13:51:22;13.43;;;10.55;;
52380;SDS011;38310;52.796;6.942;2023-12-04T13:53:48;12.10;;;10.25;;
52380;SDS011;38310;52.796;6.942;2023-12-04T13:56:19;12.35;;;10.43;;
52380;SDS011;38310;52.796;6.942;2023-12-04T13:58:59;12.65;;;10.02;;
52380;SDS011;38310;52.796;6.942;2023-12-04T14:01:25;15.13;;;10.70;;
52380;SDS011;38310;52.796;6.942;2023-12-04T14:03:55;15.82;;;10.85;;
52380;SDS011;38310;52.796;6.942;2023-12-04T14:06:26;13.75;;;10.80;;
52380;SDS011;38310;52.796;6.942;2023-12-04T14:08:53;13.40;;;11.07;;
52380;SDS011;38310;52.796;6.942;2023-12-04T14:11:18;14.90;;;10.95;;
52380;SDS011;38310;52.796;6.942;2023-12-04T14:13:44;13.20;;;7.15;;
52380;SDS011;38310;52.796;6.942;2023-12-04T14:16:10;13.55;;;10.43;;
52380;SDS011;38310;52.796;6.942;2023-12-04T14:18:36;12.70;;;11.05;;
52380;SDS011;38310;52.796;6.942;2023-12-04T14:21:01;15.18;;;10.82;;
52380;SDS011;38310;52.796;6.942;2023-12-04T14:23:27;14.30;;;10.60;;
52380;SDS011;38310;52.796;6.942;2023-12-04T14:25:53;13.27;;;10.95;;
52380;SDS011;38310;52.796;6.942;2023-12-04T14:28:19;14.43;;;11.75;;
52380;SDS011;38310;52.796;6.942;2023-12-04T14:30:45;15.98;;;11.75;;